RJOZ(METAR)
12/04 19:00
METAR RJOZ 041000Z 33001KT 9999 FEW015 BKN160 11/05 Q1024 RMK 1CU015
7AC160 A3025=
戻る
トップページへ戻る
IMOC Co,.Ltd.